Time;durP1;ratioP1;P1;durP2;ratioP2;P2;SDS_P1;SDS_P2;PMS_P1;PMS_P2;Temp;Humidity;BMP_temperature;BMP_pressure;BME280_temperature;BME280_humidity;BME280_pressure;Samples;Min_cycle;Max_cycle;Signal;HPM_P1;HPM_P2
2022/06/25 00:01:10;;;;;;;0.98;0.57;;;26.00;53.10;;;;;;5031078;28;20049;-64
2022/06/25 00:03:36;;;;;;;0.75;0.40;;;26.00;53.10;;;;;;5032772;28;20580;-65
2022/06/25 00:06:02;;;;;;;0.55;0.50;;;26.00;53.10;;;;;;5029360;28;20054;-64
2022/06/25 00:08:28;;;;;;;0.50;0.50;;;26.00;53.10;;;;;;5034144;28;20028;-67
2022/06/25 00:10:54;;;;;;;0.55;0.50;;;26.00;53.10;;;;;;5033002;28;20081;-64
2022/06/25 00:13:20;;;;;;;0.93;0.60;;;25.90;53.10;;;;;;5034344;28;20029;-67
2022/06/25 00:15:46;;;;;;;0.55;0.55;;;26.00;53.10;;;;;;5033892;28;20079;-66
2022/06/25 00:18:12;;;;;;;0.50;0.50;;;26.00;53.20;;;;;;5033840;28;20029;-65
2022/06/25 00:20:38;;;;;;;0.85;0.60;;;26.00;53.20;;;;;;5032530;28;20040;-68
2022/06/25 00:23:04;;;;;;;0.85;0.55;;;26.00;53.20;;;;;;5033391;28;20033;-66
2022/06/25 00:25:30;;;;;;;0.85;0.50;;;26.00;53.20;;;;;;5032321;28;20025;-66
2022/06/25 00:27:56;;;;;;;0.50;0.50;;;25.90;53.60;;;;;;5035058;28;20318;-64
2022/06/25 00:30:22;;;;;;;0.77;0.55;;;25.90;53.10;;;;;;5030345;28;20501;-65
2022/06/25 00:32:48;;;;;;;0.50;0.50;;;25.90;53.10;;;;;;5031181;28;20102;-68
2022/06/25 00:35:13;;;;;;;0.43;0.40;;;25.90;53.10;;;;;;5027290;28;20787;-67
2022/06/25 00:37:39;;;;;;;0.68;0.50;;;25.90;53.10;;;;;;5031952;28;20104;-67
2022/06/25 00:40:06;;;;;;;0.60;0.50;;;25.90;53.10;;;;;;5034558;28;20052;-64
2022/06/25 00:42:31;;;;;;;0.60;0.50;;;25.90;53.60;;;;;;5034540;28;20029;-67
2022/06/25 00:44:57;;;;;;;0.35;0.35;;;25.90;53.10;;;;;;5030583;28;20106;-63
2022/06/25 00:47:23;;;;;;;0.68;0.50;;;25.90;53.10;;;;;;5033871;28;20043;-67
2022/06/25 00:49:50;;;;;;;1.48;0.60;;;25.90;53.10;;;;;;5031423;28;20033;-66
2022/06/25 00:52:18;;;;;;;0.80;0.50;;;25.90;53.10;;;;;;5032718;28;20021;-67
2022/06/25 00:54:50;;;;;;;0.50;0.40;;;25.90;53.10;;;;;;5029228;28;20040;-65
2022/06/25 00:57:26;;;;;;;0.40;0.40;;;25.90;53.10;;;;;;5032106;28;20457;-67
2022/06/25 00:59:57;;;;;;;0.50;0.50;;;25.90;53.10;;;;;;5034176;28;20036;-66
2022/06/25 01:02:22;;;;;;;0.55;0.50;;;25.90;53.10;;;;;;5031249;28;20136;-67
2022/06/25 01:04:50;;;;;;;0.40;0.40;;;25.90;53.10;;;;;;5028945;28;20100;-66
2022/06/25 01:07:17;;;;;;;0.60;0.50;;;25.90;53.10;;;;;;5027363;28;20021;-66
2022/06/25 01:09:46;;;;;;;0.55;0.50;;;25.90;53.10;;;;;;5033295;28;20028;-67
2022/06/25 01:12:12;;;;;;;0.45;0.43;;;25.90;53.10;;;;;;5034227;28;20149;-65
2022/06/25 01:14:38;;;;;;;0.88;0.50;;;25.90;53.10;;;;;;5033311;28;20142;-67
2022/06/25 01:17:05;;;;;;;0.50;0.50;;;25.90;53.10;;;;;;5026738;28;20120;-66
2022/06/25 01:19:31;;;;;;;0.50;0.50;;;25.90;53.10;;;;;;5033660;28;20175;-65
2022/06/25 01:21:59;;;;;;;0.88;0.50;;;25.90;53.10;;;;;;5029093;28;20123;-67
2022/06/25 01:24:25;;;;;;;0.40;0.40;;;25.90;53.10;;;;;;5032581;28;20108;-65
2022/06/25 01:26:51;;;;;;;0.50;0.50;;;25.90;53.10;;;;;;5028446;28;20113;-64
2022/06/25 01:29:16;;;;;;;0.45;0.32;;;25.80;53.10;;;;;;5032132;28;20024;-67
2022/06/25 01:31:42;;;;;;;1.10;0.40;;;25.90;53.10;;;;;;5030444;28;20135;-64
2022/06/25 01:34:08;;;;;;;0.40;0.40;;;25.80;53.10;;;;;;5031608;28;20025;-65
2022/06/25 01:36:33;;;;;;;0.60;0.30;;;25.90;53.10;;;;;;5025205;28;20087;-67
2022/06/25 01:38:59;;;;;;;0.45;0.40;;;25.90;53.10;;;;;;5033161;28;20383;-67
2022/06/25 01:41:25;;;;;;;1.17;0.55;;;25.90;53.10;;;;;;5032922;28;20166;-67
2022/06/25 01:43:50;;;;;;;0.68;0.50;;;25.90;53.10;;;;;;5032450;28;20033;-67
2022/06/25 01:46:16;;;;;;;0.63;0.50;;;25.90;53.10;;;;;;5027637;28;20135;-66
2022/06/25 01:48:42;;;;;;;0.30;0.30;;;25.90;53.20;;;;;;5032449;28;20040;-64
2022/06/25 01:51:07;;;;;;;0.40;0.40;;;25.90;53.10;;;;;;5010625;28;20097;-67
2022/06/25 01:53:33;;;;;;;0.40;0.40;;;25.90;53.10;;;;;;5031957;28;20101;-67
2022/06/25 01:55:59;;;;;;;0.57;0.40;;;25.80;53.10;;;;;;5030141;28;20041;-67
2022/06/25 01:58:24;;;;;;;0.40;0.40;;;25.90;53.10;;;;;;5029776;28;20120;-65
2022/06/25 02:00:50;;;;;;;0.50;0.50;;;25.80;53.10;;;;;;5029218;28;20044;-66
2022/06/25 02:03:16;;;;;;;0.47;0.45;;;25.90;53.10;;;;;;5027476;28;20068;-67
2022/06/25 02:05:57;;;;;;;1.05;0.60;;;25.80;53.10;;;;;;5028993;28;20029;-66
2022/06/25 02:08:28;;;;;;;0.52;0.40;;;25.80;53.10;;;;;;5025733;28;20032;-65
2022/06/25 02:10:56;;;;;;;0.40;0.40;;;25.80;53.10;;;;;;5031147;28;20028;-66
2022/06/25 02:13:22;;;;;;;0.77;0.50;;;25.80;53.10;;;;;;5030653;28;20117;-67
2022/06/25 02:15:48;;;;;;;0.50;0.30;;;25.80;53.10;;;;;;5027237;28;20057;-66
2022/06/25 02:18:14;;;;;;;0.40;0.40;;;25.80;53.10;;;;;;5025439;28;20065;-65
2022/06/25 02:20:40;;;;;;;0.43;0.43;;;25.80;53.10;;;;;;5027884;28;20812;-67
2022/06/25 02:23:07;;;;;;;0.57;0.40;;;25.80;53.10;;;;;;5028268;28;20483;-66
2022/06/25 02:25:33;;;;;;;0.38;0.38;;;25.80;53.10;;;;;;5028762;28;20112;-66
2022/06/25 02:27:59;;;;;;;0.30;0.30;;;25.80;53.10;;;;;;5030978;28;20108;-65
2022/06/25 02:30:24;;;;;;;0.40;0.40;;;25.80;53.10;;;;;;5026484;28;20056;-67
2022/06/25 02:32:50;;;;;;;0.63;0.50;;;25.80;53.10;;;;;;5032114;28;20043;-67
2022/06/25 02:35:15;;;;;;;0.85;0.50;;;25.80;53.10;;;;;;5030090;28;20044;-66
2022/06/25 02:37:41;;;;;;;0.40;0.40;;;25.80;53.10;;;;;;5026344;28;20043;-65
2022/06/25 02:40:07;;;;;;;0.60;0.50;;;25.80;53.10;;;;;;5030715;28;20220;-67
2022/06/25 02:42:41;;;;;;;0.65;0.50;;;25.80;53.10;;;;;;5030814;28;20042;-65
2022/06/25 02:45:09;;;;;;;0.55;0.47;;;25.80;53.10;;;;;;5030414;28;20114;-67
2022/06/25 02:47:34;;;;;;;0.75;0.40;;;25.80;53.10;;;;;;5028118;28;20043;-66
2022/06/25 02:50:00;;;;;;;0.40;0.40;;;25.80;53.10;;;;;;5031995;28;20108;-66
2022/06/25 02:52:26;;;;;;;0.57;0.50;;;25.80;53.60;;;;;;5028171;28;20041;-67
2022/06/25 02:54:52;;;;;;;0.50;0.50;;;25.80;53.10;;;;;;5032931;28;20075;-67
2022/06/25 03:00:07;;;;;;;0.40;0.40;;;25.80;53.20;;;;;;5030594;28;20083;-67
2022/06/25 03:02:33;;;;;;;0.50;0.50;;;25.80;53.20;;;;;;5029282;28;20088;-66
2022/06/25 03:04:59;;;;;;;0.50;0.40;;;25.80;53.20;;;;;;5032352;28;20474;-67
2022/06/25 03:07:25;;;;;;;0.65;0.50;;;25.80;53.10;;;;;;5027310;28;20037;-67
2022/06/25 03:09:50;;;;;;;0.40;0.40;;;25.70;53.10;;;;;;5033468;28;20186;-67
2022/06/25 03:12:16;;;;;;;0.35;0.35;;;25.70;53.10;;;;;;5029018;28;20037;-67
2022/06/25 03:14:42;;;;;;;0.40;0.40;;;25.70;53.10;;;;;;5027859;28;20029;-63
2022/06/25 03:17:07;;;;;;;0.43;0.43;;;25.80;53.10;;;;;;5027799;28;20083;-67
2022/06/25 03:19:33;;;;;;;0.40;0.40;;;25.70;53.10;;;;;;5031011;28;20041;-65
2022/06/25 03:21:58;;;;;;;1.00;0.70;;;25.70;53.10;;;;;;5027500;28;20025;-67
2022/06/25 03:24:24;;;;;;;0.65;0.50;;;25.70;53.10;;;;;;5030103;28;20144;-65
2022/06/25 03:26:50;;;;;;;0.45;0.45;;;25.70;53.10;;;;;;5030805;28;20029;-67
2022/06/25 03:29:16;;;;;;;0.60;0.43;;;25.70;53.10;;;;;;5031201;28;20041;-64
2022/06/25 03:31:41;;;;;;;0.88;0.47;;;25.70;53.10;;;;;;5027238;28;20079;-66
2022/06/25 03:34:07;;;;;;;0.50;0.38;;;25.70;53.10;;;;;;5030243;28;20052;-63
2022/06/25 03:36:33;;;;;;;0.50;0.50;;;25.70;53.10;;;;;;5026586;28;20040;-66
2022/06/25 03:38:59;;;;;;;0.50;0.50;;;25.70;53.10;;;;;;5032792;28;20029;-66
2022/06/25 03:41:37;;;;;;;0.63;0.50;;;25.70;53.10;;;;;;5027414;28;20116;-67
2022/06/25 03:44:07;;;;;;;0.40;0.40;;;25.70;53.10;;;;;;5033738;28;20120;-67
2022/06/25 03:46:34;;;;;;;0.88;0.52;;;25.70;53.10;;;;;;5027610;28;20032;-67
2022/06/25 03:49:00;;;;;;;0.52;0.50;;;25.70;53.10;;;;;;5029912;28;20414;-65
2022/06/25 03:51:27;;;;;;;0.55;0.38;;;25.70;53.10;;;;;;5027302;28;20277;-64
2022/06/25 03:53:53;;;;;;;0.43;0.40;;;25.70;53.10;;;;;;5037130;28;20102;-67
2022/06/25 03:56:19;;;;;;;0.32;0.32;;;25.70;53.10;;;;;;5035369;28;20090;-67
2022/06/25 03:58:45;;;;;;;0.40;0.40;;;25.70;53.10;;;;;;5034607;28;20033;-63
2022/06/25 04:01:11;;;;;;;0.45;0.40;;;25.70;53.60;;;;;;5031783;28;20125;-67
2022/06/25 04:03:36;;;;;;;0.40;0.40;;;25.70;53.10;;;;;;5033207;28;20037;-67
2022/06/25 04:06:02;;;;;;;0.43;0.40;;;25.70;53.10;;;;;;5034278;28;20033;-67
2022/06/25 04:08:28;;;;;;;0.40;0.40;;;25.70;53.10;;;;;;5030129;28;20117;-66
2022/06/25 04:10:54;;;;;;;0.43;0.40;;;25.70;53.10;;;;;;5033136;28;20033;-67
2022/06/25 04:13:19;;;;;;;0.40;0.40;;;25.70;53.10;;;;;;5033230;28;20116;-66
2022/06/25 04:15:45;;;;;;;1.45;0.50;;;25.70;53.10;;;;;;5033645;28;20768;-63
2022/06/25 04:18:11;;;;;;;0.43;0.40;;;25.70;53.10;;;;;;5034854;28;20039;-64
2022/06/25 04:20:37;;;;;;;0.75;0.40;;;25.70;53.20;;;;;;5031917;28;20053;-66
2022/06/25 04:23:03;;;;;;;0.73;0.47;;;25.70;53.10;;;;;;5028474;28;20484;-67
2022/06/25 04:25:28;;;;;;;0.68;0.50;;;25.70;53.10;;;;;;5029777;28;20025;-65
2022/06/25 04:30:38;;;;;;;2.10;1.00;;;25.70;52.90;;;;;;5026558;28;20084;-67
2022/06/25 04:33:04;;;;;;;2.50;1.30;;;25.70;52.40;;;;;;5028511;28;20056;-67
2022/06/25 04:35:30;;;;;;;2.88;1.48;;;25.70;52.20;;;;;;5032340;28;20037;-65
2022/06/25 04:37:55;;;;;;;2.40;1.40;;;25.60;51.70;;;;;;5021452;28;20048;-66
2022/06/25 04:40:21;;;;;;;3.88;1.48;;;25.60;51.30;;;;;;5031968;28;20035;-64
2022/06/25 04:42:47;;;;;;;3.20;1.67;;;25.50;51.10;;;;;;5031240;28;20120;-64
2022/06/25 04:45:12;;;;;;;2.95;1.88;;;25.50;50.80;;;;;;5034611;28;20029;-63
2022/06/25 04:47:38;;;;;;;3.00;2.00;;;25.50;50.60;;;;;;5021114;28;20044;-66
2022/06/25 04:50:05;;;;;;;2.58;1.70;;;25.40;50.70;;;;;;5025097;28;20095;-63
2022/06/25 04:52:31;;;;;;;2.92;1.40;;;25.40;50.70;;;;;;5027061;28;20116;-65
2022/06/25 04:54:56;;;;;;;1.42;1.05;;;25.40;50.80;;;;;;5016544;28;20372;-66
2022/06/25 04:57:23;;;;;;;1.63;1.13;;;25.40;50.80;;;;;;5029152;28;20118;-65
2022/06/25 04:59:48;;;;;;;2.22;1.20;;;25.40;50.80;;;;;;5034611;28;20083;-66
2022/06/25 05:02:14;;;;;;;2.33;1.02;;;25.40;51.00;;;;;;5032782;28;20044;-66
2022/06/25 05:04:39;;;;;;;3.10;1.30;;;25.40;51.00;;;;;;5032329;28;20036;-67
2022/06/25 05:07:05;;;;;;;3.00;1.00;;;25.40;51.10;;;;;;5029222;28;20462;-67
2022/06/25 05:09:31;;;;;;;1.77;0.88;;;25.40;51.10;;;;;;5034599;28;20033;-63
2022/06/25 05:11:57;;;;;;;1.50;0.85;;;25.40;51.10;;;;;;5031055;28;20048;-66
2022/06/25 05:14:23;;;;;;;1.60;0.90;;;25.40;51.20;;;;;;5031688;28;20030;-67
2022/06/25 05:16:48;;;;;;;2.28;1.00;;;25.40;51.30;;;;;;5030080;28;20668;-65
2022/06/25 05:19:14;;;;;;;1.30;0.85;;;25.40;51.30;;;;;;5032229;28;20040;-67
2022/06/25 05:21:40;;;;;;;2.58;0.80;;;25.40;51.30;;;;;;5028140;28;20065;-64
2022/06/25 05:24:05;;;;;;;1.95;0.90;;;25.40;51.40;;;;;;5032081;28;20445;-68
2022/06/25 05:26:31;;;;;;;1.58;1.00;;;25.40;51.30;;;;;;5034900;28;20021;-65
2022/06/25 05:28:57;;;;;;;1.88;0.85;;;25.40;51.40;;;;;;5028170;28;20033;-67
2022/06/25 05:31:23;;;;;;;1.70;0.73;;;25.40;51.40;;;;;;5012458;28;20029;-67
2022/06/25 05:33:49;;;;;;;1.73;1.00;;;25.40;51.40;;;;;;5015915;28;20037;-63
2022/06/25 05:36:15;;;;;;;1.58;0.90;;;25.40;51.50;;;;;;5024672;28;20500;-64
2022/06/25 05:38:40;;;;;;;2.35;1.30;;;25.40;51.40;;;;;;5025130;28;20174;-67
2022/06/25 05:41:08;;;;;;;3.80;1.58;;;25.30;51.50;;;;;;5030523;28;20044;-67
2022/06/25 05:43:35;;;;;;;3.28;1.95;;;25.20;51.80;;;;;;5021146;28;20041;-64
2022/06/25 05:46:01;;;;;;;2.85;1.70;;;25.10;52.20;;;;;;5028130;28;20029;-67
2022/06/25 05:48:27;;;;;;;2.33;1.52;;;24.90;52.40;;;;;;5030605;28;20025;-64
2022/06/25 05:50:52;;;;;;;2.92;1.60;;;24.90;53.00;;;;;;5028615;28;20030;-66
2022/06/25 05:53:18;;;;;;;2.40;1.50;;;24.70;52.50;;;;;;5028511;28;20103;-65
2022/06/25 05:55:43;;;;;;;3.60;1.80;;;24.60;52.70;;;;;;5032272;28;20025;-67
2022/06/25 05:58:09;;;;;;;2.47;1.70;;;24.60;52.70;;;;;;5023847;28;20033;-67
2022/06/25 06:00:35;;;;;;;3.25;1.80;;;24.50;52.80;;;;;;5023027;28;20456;-66
2022/06/25 06:03:00;;;;;;;1.88;1.42;;;24.40;53.00;;;;;;5017946;28;20064;-67
2022/06/25 06:05:27;;;;;;;2.42;1.40;;;24.40;53.30;;;;;;5016933;28;20036;-67
2022/06/25 06:07:53;;;;;;;3.45;1.52;;;24.40;53.40;;;;;;5025302;28;20116;-66
2022/06/25 06:10:18;;;;;;;2.10;1.30;;;24.40;53.50;;;;;;5024935;28;20108;-66
2022/06/25 06:12:44;;;;;;;2.90;1.67;;;24.40;53.40;;;;;;5022849;28;20065;-64
2022/06/25 06:15:10;;;;;;;3.75;1.70;;;24.30;53.70;;;;;;5025809;28;20029;-64
2022/06/25 06:17:36;;;;;;;3.42;1.77;;;24.20;54.20;;;;;;5026269;28;20032;-64
2022/06/25 06:20:02;;;;;;;3.38;1.90;;;24.10;54.30;;;;;;5029568;28;20033;-66
2022/06/25 06:22:28;;;;;;;3.28;1.50;;;24.00;55.20;;;;;;5023011;28;20036;-64
2022/06/25 06:24:54;;;;;;;1.85;1.10;;;24.00;55.00;;;;;;5012498;28;21398;-66
2022/06/25 06:27:19;;;;;;;3.15;1.73;;;24.00;54.70;;;;;;5023042;28;20075;-65
2022/06/25 06:29:45;;;;;;;2.47;1.52;;;24.00;54.80;;;;;;5025386;28;20025;-66
2022/06/25 06:32:11;;;;;;;2.50;1.25;;;24.00;54.70;;;;;;5015433;28;20029;-66
2022/06/25 06:34:36;;;;;;;2.88;1.00;;;24.00;54.60;;;;;;5021715;28;20029;-66
2022/06/25 06:37:02;;;;;;;1.73;0.80;;;24.10;54.50;;;;;;5026134;28;20025;-66
2022/06/25 06:39:28;;;;;;;1.55;1.00;;;24.10;54.30;;;;;;5030182;28;20052;-67
2022/06/25 06:41:53;;;;;;;1.48;0.88;;;24.10;54.10;;;;;;5029723;28;20131;-66
2022/06/25 06:44:19;;;;;;;1.08;0.70;;;24.20;54.00;;;;;;5029139;28;20492;-66
2022/06/25 06:46:44;;;;;;;1.15;0.70;;;24.20;53.80;;;;;;5025980;28;20127;-64
2022/06/25 06:49:10;;;;;;;1.13;1.00;;;24.20;53.80;;;;;;5032422;28;20482;-64
2022/06/25 06:51:36;;;;;;;1.00;0.70;;;24.30;53.90;;;;;;5028702;28;20461;-66
2022/06/25 06:54:02;;;;;;;0.70;0.50;;;24.30;53.70;;;;;;5027177;28;20025;-64
2022/06/25 06:56:28;;;;;;;1.83;0.60;;;24.30;53.60;;;;;;5030676;28;20037;-66
2022/06/25 06:58:53;;;;;;;1.10;0.60;;;24.30;53.60;;;;;;5027626;28;20040;-66
2022/06/25 07:01:19;;;;;;;1.17;0.70;;;24.30;53.50;;;;;;5033433;28;20041;-66
2022/06/25 07:03:45;;;;;;;1.00;0.70;;;24.30;53.50;;;;;;5024974;28;20036;-65
2022/06/25 07:06:11;;;;;;;0.65;0.63;;;24.30;53.50;;;;;;5021014;28;20037;-66
2022/06/25 07:08:36;;;;;;;1.10;0.70;;;24.30;53.60;;;;;;5026303;28;20029;-63
2022/06/25 07:11:02;;;;;;;0.80;0.60;;;24.30;53.60;;;;;;5026564;28;20032;-66
2022/06/25 07:13:27;;;;;;;0.65;0.60;;;24.30;53.60;;;;;;5027127;28;20039;-65
2022/06/25 07:15:53;;;;;;;1.13;0.55;;;24.30;53.50;;;;;;5020787;28;20109;-64
2022/06/25 07:18:18;;;;;;;0.60;0.60;;;24.30;53.50;;;;;;5024593;28;20075;-66
2022/06/25 07:20:44;;;;;;;1.02;0.57;;;24.30;53.50;;;;;;5024299;28;20037;-63
2022/06/25 07:23:10;;;;;;;1.05;0.70;;;24.40;53.50;;;;;;5028854;28;20025;-64
2022/06/25 07:25:35;;;;;;;0.75;0.60;;;24.40;53.50;;;;;;5028849;28;20511;-65
2022/06/25 07:28:01;;;;;;;0.70;0.52;;;24.40;53.60;;;;;;5030091;28;20027;-65
2022/06/25 07:30:27;;;;;;;1.85;0.70;;;24.40;53.60;;;;;;5033064;28;20444;-64
2022/06/25 07:32:53;;;;;;;1.05;0.70;;;24.40;53.50;;;;;;5012040;28;20048;-65
2022/06/25 07:35:18;;;;;;;1.40;0.70;;;24.40;53.50;;;;;;5036243;28;20114;-66
2022/06/25 07:37:44;;;;;;;0.90;0.60;;;24.40;53.50;;;;;;5026619;28;20040;-66
2022/06/25 07:40:11;;;;;;;2.20;0.70;;;24.40;53.50;;;;;;5034093;28;20166;-66
2022/06/25 07:42:36;;;;;;;1.98;0.50;;;24.40;53.50;;;;;;5031740;28;20033;-63
2022/06/25 07:45:03;;;;;;;1.05;0.80;;;24.40;53.40;;;;;;5035095;28;20465;-66
2022/06/25 07:47:36;;;;;;;0.95;0.65;;;24.40;53.40;;;;;;5030731;28;20016;-64
2022/06/25 07:52:46;;;;;;;0.77;0.68;;;24.40;53.40;;;;;;5030507;28;20055;-65
2022/06/25 07:55:11;;;;;;;0.70;0.60;;;24.40;53.40;;;;;;5033734;28;20033;-65
2022/06/25 07:57:37;;;;;;;0.68;0.60;;;24.40;53.30;;;;;;5029900;28;20033;-66
2022/06/25 08:00:04;;;;;;;0.90;0.65;;;24.50;53.40;;;;;;5033006;28;20831;-65
2022/06/25 08:02:30;;;;;;;0.95;0.70;;;24.50;53.40;;;;;;5030457;28;20068;-63
2022/06/25 08:04:55;;;;;;;1.25;0.70;;;24.50;53.30;;;;;;5031656;28;20077;-66
2022/06/25 08:07:21;;;;;;;1.15;0.70;;;24.50;53.30;;;;;;5026464;28;20032;-66
2022/06/25 08:09:47;;;;;;;0.95;0.70;;;24.50;53.30;;;;;;5034623;28;20131;-66
2022/06/25 08:12:12;;;;;;;1.00;0.70;;;24.50;53.40;;;;;;5033921;28;20112;-64
2022/06/25 08:14:38;;;;;;;0.90;0.55;;;24.50;53.40;;;;;;5029174;28;20127;-65
2022/06/25 08:17:04;;;;;;;1.45;0.75;;;24.50;53.40;;;;;;5025856;28;20053;-67
2022/06/25 08:19:29;;;;;;;1.45;0.70;;;24.50;53.40;;;;;;5028371;28;20120;-64
2022/06/25 08:21:55;;;;;;;1.85;0.70;;;24.50;53.30;;;;;;5029664;28;20025;-63
2022/06/25 08:24:20;;;;;;;1.55;0.80;;;24.50;53.40;;;;;;5027474;28;20025;-64
2022/06/25 08:26:46;;;;;;;1.52;0.70;;;24.50;53.40;;;;;;5031498;28;20114;-66
2022/06/25 08:29:12;;;;;;;0.88;0.60;;;24.50;53.40;;;;;;5032253;28;20025;-64
2022/06/25 08:31:37;;;;;;;1.55;0.82;;;24.50;53.40;;;;;;5032576;28;20358;-66
2022/06/25 08:34:03;;;;;;;1.80;0.60;;;24.50;53.40;;;;;;5034098;28;20116;-63
2022/06/25 08:36:28;;;;;;;0.82;0.60;;;24.50;53.40;;;;;;5030204;28;20063;-65
2022/06/25 08:38:54;;;;;;;1.35;0.70;;;24.50;53.40;;;;;;5021321;28;20477;-63
2022/06/25 08:41:20;;;;;;;2.10;0.80;;;24.50;53.40;;;;;;5030080;28;20115;-66
2022/06/25 08:43:45;;;;;;;1.63;0.73;;;24.50;53.40;;;;;;5031846;28;20029;-66
2022/06/25 08:46:11;;;;;;;1.73;0.80;;;24.60;53.40;;;;;;5030419;28;20501;-66
2022/06/25 08:48:40;;;;;;;1.25;0.70;;;24.60;53.40;;;;;;5032032;28;20029;-66
2022/06/25 08:51:08;;;;;;;1.33;0.70;;;24.60;53.30;;;;;;5024301;28;20025;-65
2022/06/25 08:53:34;;;;;;;1.25;0.80;;;24.50;53.30;;;;;;5022033;28;20116;-66
2022/06/25 08:56:01;;;;;;;1.50;0.60;;;24.60;53.30;;;;;;5026657;28;20053;-66
2022/06/25 08:58:27;;;;;;;1.20;0.73;;;24.60;53.40;;;;;;5026047;28;20112;-65
2022/06/25 09:00:53;;;;;;;1.67;0.77;;;24.60;53.40;;;;;;5032833;28;20153;-64
2022/06/25 09:03:19;;;;;;;1.52;0.65;;;24.60;53.50;;;;;;5026992;28;20144;-66
2022/06/25 09:05:44;;;;;;;0.60;0.60;;;24.60;53.50;;;;;;5031235;28;20033;-66
2022/06/25 09:08:15;;;;;;;1.50;0.80;;;24.60;53.50;;;;;;5022076;28;20033;-66
2022/06/25 09:10:45;;;;;;;1.00;0.70;;;24.60;53.50;;;;;;5028555;28;20029;-64
2022/06/25 09:13:12;;;;;;;2.50;0.70;;;24.60;53.50;;;;;;5023622;28;20512;-65
2022/06/25 09:15:44;;;;;;;2.70;0.70;;;24.60;53.60;;;;;;5022266;28;20058;-66
2022/06/25 09:18:15;;;;;;;1.65;0.80;;;24.60;53.50;;;;;;5023417;28;20029;-63
2022/06/25 09:21:07;;;;;;;1.08;0.70;;;24.60;53.50;;;;;;5015660;28;20647;-67
2022/06/25 09:23:57;;;;;;;1.55;0.70;;;24.60;53.60;;;;;;5027604;28;20029;-64
2022/06/25 09:26:22;;;;;;;1.58;0.70;;;24.60;53.60;;;;;;5030290;28;20033;-65
2022/06/25 09:28:48;;;;;;;1.27;0.70;;;24.60;53.60;;;;;;5027623;28;20047;-66
2022/06/25 09:31:36;;;;;;;0.80;0.60;;;24.60;53.50;;;;;;5026879;28;20030;-64
2022/06/25 09:34:07;;;;;;;1.50;0.70;;;24.70;53.60;;;;;;5024964;28;20032;-64
2022/06/25 09:36:33;;;;;;;1.05;0.60;;;24.70;53.60;;;;;;5026070;28;20179;-66
2022/06/25 09:38:58;;;;;;;0.93;0.70;;;24.70;53.60;;;;;;5015828;28;21827;-66
2022/06/25 09:41:24;;;;;;;1.15;0.70;;;24.70;53.50;;;;;;5019352;28;20040;-66
2022/06/25 09:43:51;;;;;;;0.85;0.70;;;24.70;53.50;;;;;;5021786;28;20112;-64
2022/06/25 09:46:17;;;;;;;0.85;0.60;;;24.70;53.50;;;;;;5027591;28;20029;-66
2022/06/25 09:48:43;;;;;;;1.10;0.60;;;24.70;53.50;;;;;;5026512;28;20025;-66
2022/06/25 09:51:09;;;;;;;0.65;0.60;;;24.70;53.50;;;;;;5025160;28;20028;-66
2022/06/25 09:53:56;;;;;;;0.68;0.65;;;24.70;53.50;;;;;;5025315;28;20033;-66
2022/06/25 09:56:23;;;;;;;1.10;0.70;;;24.70;53.50;;;;;;5022712;28;20045;-66
2022/06/25 09:58:50;;;;;;;0.90;0.60;;;24.70;53.50;;;;;;5026377;28;20120;-64
2022/06/25 10:01:18;;;;;;;1.50;0.80;;;24.70;53.40;;;;;;5026495;28;20045;-63
2022/06/25 10:03:45;;;;;;;0.60;0.55;;;24.70;53.40;;;;;;5020969;28;20460;-66
2022/06/25 10:06:14;;;;;;;2.80;0.77;;;24.70;53.40;;;;;;5024354;28;20025;-66
2022/06/25 10:08:43;;;;;;;1.08;0.60;;;24.70;53.40;;;;;;5023251;28;20482;-66
2022/06/25 10:11:10;;;;;;;0.60;0.60;;;24.80;53.40;;;;;;5026366;28;20039;-65
2022/06/25 10:13:36;;;;;;;0.77;0.55;;;24.80;53.40;;;;;;5021225;28;20041;-63
2022/06/25 10:16:02;;;;;;;0.82;0.52;;;24.80;53.40;;;;;;5021513;28;20051;-63
2022/06/25 10:18:28;;;;;;;0.88;0.60;;;24.70;53.30;;;;;;5025267;28;20032;-64
2022/06/25 10:20:54;;;;;;;0.65;0.50;;;24.80;53.40;;;;;;5026587;28;20060;-66
2022/06/25 10:23:21;;;;;;;1.60;0.95;;;24.80;53.30;;;;;;5017278;28;20048;-64
2022/06/25 10:25:48;;;;;;;0.47;0.43;;;24.80;53.40;;;;;;5024484;28;20025;-62
2022/06/25 10:28:22;;;;;;;1.15;0.70;;;24.80;53.30;;;;;;5025585;28;20118;-65
2022/06/25 10:30:53;;;;;;;0.93;0.55;;;24.80;53.30;;;;;;5020167;28;20121;-65
2022/06/25 10:33:21;;;;;;;1.15;0.70;;;24.80;53.30;;;;;;5014966;28;20029;-66
2022/06/25 10:35:51;;;;;;;0.98;0.70;;;24.80;53.40;;;;;;5023618;28;20115;-65
2022/06/25 10:38:21;;;;;;;0.60;0.60;;;24.80;53.30;;;;;;5020122;28;20053;-64
2022/06/25 10:40:50;;;;;;;1.08;0.70;;;24.80;53.40;;;;;;5026250;28;21504;-66
2022/06/25 10:43:34;;;;;;;;;;;24.80;53.40;;;;;;5021014;28;20489;-66
2022/06/25 10:46:18;;;;;;;1.13;0.65;;;24.80;53.40;;;;;;5019670;28;20572;-65
2022/06/25 10:49:11;;;;;;;0.95;0.57;;;24.80;53.30;;;;;;5023997;28;20316;-63
2022/06/25 10:51:49;;;;;;;1.13;0.60;;;24.80;53.40;;;;;;5021247;28;20033;-66
2022/06/25 10:54:35;;;;;;;1.13;0.70;;;24.80;53.30;;;;;;5024586;28;20033;-66
2022/06/25 10:57:04;;;;;;;1.00;0.60;;;24.80;53.30;;;;;;5026216;28;20030;-63
2022/06/25 10:59:46;;;;;;;0.60;0.52;;;24.80;53.30;;;;;;5024494;28;20028;-66
2022/06/25 11:02:16;;;;;;;0.98;0.55;;;24.80;53.30;;;;;;5023952;28;21310;-66
2022/06/25 11:04:54;;;;;;;1.13;0.68;;;24.80;53.20;;;;;;5028107;28;20059;-66
2022/06/25 11:07:24;;;;;;;0.82;0.57;;;24.80;53.20;;;;;;5022640;28;20045;-63
2022/06/25 11:09:58;;;;;;;1.45;0.70;;;24.80;53.10;;;;;;5027458;28;20049;-65
2022/06/25 11:12:26;;;;;;;1.27;0.70;;;24.80;53.10;;;;;;5025594;28;20044;-66
2022/06/25 11:15:02;;;;;;;0.70;0.57;;;24.90;53.20;;;;;;5023828;28;20085;-66
2022/06/25 11:17:28;;;;;;;0.52;0.47;;;24.80;53.10;;;;;;5022077;28;20044;-64
2022/06/25 11:19:54;;;;;;;0.77;0.50;;;24.80;53.10;;;;;;5031530;28;20032;-63
2022/06/25 11:22:20;;;;;;;0.85;0.60;;;24.90;53.10;;;;;;5026129;28;20091;-65
2022/06/25 11:30:14;;;;;;;0.90;0.60;;;24.90;53.10;;;;;;5027392;28;20051;-66
2022/06/25 11:32:47;;;;;;;0.85;0.52;;;24.90;53.10;;;;;;5022282;28;20171;-64
2022/06/25 11:35:13;;;;;;;0.55;0.50;;;24.90;53.10;;;;;;5029449;28;20071;-65
2022/06/25 11:37:39;;;;;;;0.77;0.57;;;24.90;53.10;;;;;;5025804;28;20071;-66
2022/06/25 11:40:17;;;;;;;0.93;0.60;;;24.90;53.10;;;;;;5027138;28;20092;-66
2022/06/25 11:42:43;;;;;;;0.80;0.70;;;24.90;53.10;;;;;;5028601;28;20110;-66
2022/06/25 11:45:10;;;;;;;0.55;0.50;;;24.90;53.10;;;;;;5025925;28;20044;-63
2022/06/25 11:47:37;;;;;;;0.60;0.55;;;24.90;53.10;;;;;;5023440;28;20032;-65
2022/06/25 11:50:07;;;;;;;0.50;0.50;;;24.90;53.10;;;;;;5022735;28;20025;-66
2022/06/25 11:52:33;;;;;;;0.90;0.60;;;24.90;53.10;;;;;;5025103;28;20030;-64
2022/06/25 11:54:58;;;;;;;1.23;0.68;;;24.90;53.30;;;;;;5028697;28;20059;-66
2022/06/25 11:57:26;;;;;;;0.60;0.60;;;24.90;53.30;;;;;;5030152;28;20041;-64
2022/06/25 11:59:54;;;;;;;1.65;0.70;;;24.90;53.40;;;;;;5028687;28;20048;-66
2022/06/25 12:02:20;;;;;;;0.60;0.60;;;24.90;53.40;;;;;;5030551;28;20036;-65
2022/06/25 12:04:54;;;;;;;0.80;0.60;;;24.90;53.40;;;;;;5028285;28;20068;-65
2022/06/25 12:07:31;;;;;;;0.85;0.60;;;24.90;53.40;;;;;;5028825;28;20032;-66
2022/06/25 12:10:03;;;;;;;0.88;0.60;;;24.90;53.50;;;;;;5025373;28;20583;-66
2022/06/25 12:12:28;;;;;;;0.60;0.55;;;25.00;53.50;;;;;;5027507;28;20070;-66
2022/06/25 12:14:55;;;;;;;0.70;0.50;;;25.00;53.50;;;;;;5031441;28;20033;-65
2022/06/25 12:17:21;;;;;;;1.23;0.50;;;25.00;53.50;;;;;;5024552;28;20038;-66
2022/06/25 12:19:54;;;;;;;0.57;0.55;;;25.00;53.50;;;;;;5030643;28;20122;-65
2022/06/25 12:22:26;;;;;;;1.02;0.60;;;25.00;53.50;;;;;;5025447;28;20051;-63
2022/06/25 12:24:56;;;;;;;1.10;0.70;;;25.00;53.60;;;;;;5027997;28;20036;-66
2022/06/25 12:27:22;;;;;;;0.63;0.60;;;25.10;53.60;;;;;;5031363;28;20086;-65
2022/06/25 12:29:49;;;;;;;0.68;0.60;;;25.00;53.60;;;;;;5033902;28;20456;-66
2022/06/25 12:32:15;;;;;;;1.52;0.57;;;25.00;53.60;;;;;;5027483;28;20047;-66
2022/06/25 12:34:51;;;;;;;1.08;0.70;;;25.00;53.60;;;;;;5025883;28;20029;-66
2022/06/25 12:37:30;;;;;;;0.73;0.60;;;25.00;53.60;;;;;;5024666;28;20025;-65
2022/06/25 12:39:57;;;;;;;0.90;0.60;;;25.00;53.60;;;;;;5026351;28;20593;-63
2022/06/25 12:42:24;;;;;;;0.98;0.50;;;25.10;53.70;;;;;;5027544;28;20032;-65
2022/06/25 12:44:50;;;;;;;0.70;0.55;;;25.10;53.70;;;;;;5023352;28;20080;-66
2022/06/25 12:47:17;;;;;;;0.65;0.50;;;25.10;53.70;;;;;;5029986;28;20017;-66
2022/06/25 12:49:51;;;;;;;0.60;0.50;;;25.10;53.70;;;;;;5028840;28;20025;-66
2022/06/25 12:52:36;;;;;;;0.60;0.60;;;25.10;53.70;;;;;;5026927;28;20070;-67
2022/06/25 12:55:02;;;;;;;0.95;0.60;;;25.10;53.70;;;;;;5029758;28;20033;-66
2022/06/25 12:57:35;;;;;;;0.65;0.50;;;25.10;53.70;;;;;;5024205;28;20029;-66
2022/06/25 13:00:03;;;;;;;0.88;0.50;;;25.10;53.70;;;;;;5029813;28;20091;-63
2022/06/25 13:02:29;;;;;;;0.65;0.60;;;25.10;53.70;;;;;;5023028;28;20136;-64